Time;durP1;ratioP1;P1;durP2;ratioP2;P2;SDS_P1;SDS_P2;PMS_P1;PMS_P2;Temp;Humidity;BMP_temperature;BMP_pressure;BME280_temperature;BME280_humidity;BME280_pressure;Samples;Min_cycle;Max_cycle;Signal;HPM_P1;HPM_P2
2022/12/09 00:01:08;;;;;;;1.40;1.30;;;;;;;;;;5074703;28;20035;-82
2022/12/09 00:03:34;;;;;;;2.45;1.23;;;;;;;;;;5072937;28;20037;-82
2022/12/09 00:06:06;;;;;;;13.60;4.97;;;;;;;;;;5074137;28;20059;-81
2022/12/09 00:08:31;;;;;;;14.80;4.43;;;;;;;;;;5072816;28;20028;-81
2022/12/09 00:10:56;;;;;;;6.47;3.08;;;;;;;;;;5074087;28;20024;-81
2022/12/09 00:13:22;;;;;;;7.70;3.75;;;;;;;;;;5074337;28;20051;-81
2022/12/09 00:15:47;;;;;;;4.53;2.47;;;;;;;;;;5073224;28;20032;-81
2022/12/09 00:18:13;;;;;;;4.47;2.63;;;;;;;;;;5073465;28;20043;-82
2022/12/09 00:20:38;;;;;;;5.35;1.27;;;;;;;;;;5073399;28;20486;-82
2022/12/09 00:23:04;;;;;;;2.83;2.42;;;;;;;;;;5074695;28;20025;-82
2022/12/09 00:25:30;;;;;;;8.80;3.38;;;;;;;;;;5074029;28;20081;-81
2022/12/09 00:27:56;;;;;;;2.70;1.95;;;;;;;;;;5074271;28;20028;-82
2022/12/09 00:30:21;;;;;;;5.85;3.47;;;;;;;;;;5073299;28;20541;-81
2022/12/09 00:32:46;;;;;;;3.47;2.20;;;;;;;;;;5073095;28;20020;-81
2022/12/09 00:35:12;;;;;;;8.52;2.88;;;;;;;;;;5072227;28;20095;-81
2022/12/09 00:37:37;;;;;;;5.65;1.92;;;;;;;;;;5071997;28;20046;-83
2022/12/09 00:40:03;;;;;;;8.60;2.20;;;;;;;;;;5072464;28;20028;-83
2022/12/09 00:42:28;;;;;;;8.07;1.67;;;;;;;;;;5073847;28;20500;-83
2022/12/09 00:44:54;;;;;;;2.45;1.77;;;;;;;;;;5073798;28;20032;-83
2022/12/09 00:47:19;;;;;;;3.42;1.45;;;;;;;;;;5074605;28;20538;-83
2022/12/09 00:49:44;;;;;;;5.60;2.53;;;;;;;;;;5073529;28;20048;-83
2022/12/09 00:52:10;;;;;;;19.00;2.00;;;;;;;;;;5073803;28;20460;-83
2022/12/09 00:54:35;;;;;;;2.15;1.30;;;;;;;;;;5071564;28;20025;-83
2022/12/09 00:57:01;;;;;;;3.63;2.17;;;;;;;;;;5073152;28;20090;-83
2022/12/09 00:59:27;;;;;;;11.77;2.13;;;;;;;;;;5073120;28;20674;-81
2022/12/09 01:01:52;;;;;;;3.42;2.13;;;;;;;;;;5072767;28;20024;-81
2022/12/09 01:04:17;;;;;;;4.05;2.45;;;;;;;;;;5072967;28;20040;-80
2022/12/09 01:06:43;;;;;;;4.47;2.33;;;;;;;;;;5073258;28;20020;-81
2022/12/09 01:09:08;;;;;;;5.00;2.90;;;;;;;;;;5071421;28;20024;-81
2022/12/09 01:11:34;;;;;;;5.22;3.42;;;;;;;;;;5072434;28;20103;-81
2022/12/09 01:14:01;;;;;;;1.20;1.13;;;;;;;;;;5073068;28;20031;-81
2022/12/09 01:16:32;;;;;;;6.72;1.45;;;;;;;;;;5071413;28;20027;-81
2022/12/09 01:18:59;;;;;;;3.20;2.35;;;;;;;;;;5072396;28;20024;-81
2022/12/09 01:21:25;;;;;;;6.63;2.50;;;;;;;;;;5072456;28;20036;-81
2022/12/09 01:23:51;;;;;;;10.32;2.78;;;;;;;;;;5072851;28;20030;-81
2022/12/09 01:26:17;;;;;;;8.57;3.28;;;;;;;;;;5072558;28;20039;-81
2022/12/09 01:28:42;;;;;;;9.63;2.28;;;;;;;;;;5072573;28;20321;-82
2022/12/09 01:31:11;;;;;;;6.65;2.83;;;;;;;;;;5072436;28;20078;-82
2022/12/09 01:33:37;;;;;;;3.72;2.08;;;;;;;;;;5071184;28;20016;-81
2022/12/09 01:36:08;;;;;;;4.78;2.03;;;;;;;;;;5073107;28;20104;-81
2022/12/09 01:38:34;;;;;;;3.70;2.00;;;;;;;;;;5072019;28;20033;-81
2022/12/09 01:41:00;;;;;;;4.72;2.05;;;;;;;;;;5071348;28;20483;-81
2022/12/09 01:43:26;;;;;;;6.30;2.83;;;;;;;;;;5066974;28;20021;-81
2022/12/09 01:45:52;;;;;;;3.70;1.88;;;;;;;;;;5070363;28;20464;-81
2022/12/09 01:48:20;;;;;;;3.67;1.95;;;;;;;;;;5070916;28;20534;-81
2022/12/09 01:51:00;;;;;;;2.70;1.65;;;;;;;;;;5072304;28;20468;-82
2022/12/09 01:53:29;;;;;;;3.13;2.03;;;;;;;;;;5067879;28;20020;-83
2022/12/09 01:55:58;;;;;;;3.78;2.30;;;;;;;;;;5072281;28;20048;-83
2022/12/09 01:58:25;;;;;;;2.42;1.17;;;;;;;;;;5066821;28;20035;-83
2022/12/09 02:00:50;;;;;;;3.53;1.88;;;;;;;;;;5072964;28;20038;-83
2022/12/09 02:03:16;;;;;;;4.80;2.03;;;;;;;;;;5072787;28;20020;-85
2022/12/09 02:05:43;;;;;;;3.58;1.88;;;;;;;;;;5072107;28;20029;-84
2022/12/09 02:08:12;;;;;;;4.00;2.03;;;;;;;;;;5070751;28;20028;-83
2022/12/09 02:11:01;;;;;;;3.17;2.17;;;;;;;;;;5072803;28;20016;-84
2022/12/09 02:13:48;;;;;;;3.58;1.98;;;;;;;;;;5071994;28;20029;-84
2022/12/09 02:16:18;;;;;;;2.55;1.63;;;;;;;;;;5069252;28;20028;-84
2022/12/09 02:18:49;;;;;;;3.50;2.78;;;;;;;;;;5071658;28;20463;-84
2022/12/09 02:21:32;;;;;;;2.72;2.05;;;;;;;;;;5071889;28;20038;-83
2022/12/09 02:24:07;;;;;;;2.17;1.98;;;;;;;;;;5072625;28;20093;-83
2022/12/09 02:26:43;;;;;;;6.80;1.92;;;;;;;;;;5072535;28;20059;-83
2022/12/09 02:29:24;;;;;;;1.70;1.52;;;;;;;;;;5071602;28;20052;-83
2022/12/09 02:32:11;;;;;;;5.60;2.17;;;;;;;;;;5071571;28;20101;-82
2022/12/09 02:34:46;;;;;;;4.20;2.85;;;;;;;;;;5072885;28;20024;-83
2022/12/09 02:37:14;;;;;;;1.98;1.80;;;;;;;;;;5072745;28;20028;-83
2022/12/09 02:39:48;;;;;;;3.13;2.08;;;;;;;;;;5072693;28;20028;-82
2022/12/09 02:42:17;;;;;;;3.00;2.15;;;;;;;;;;5072895;28;20028;-82
2022/12/09 02:44:46;;;;;;;3.25;1.58;;;;;;;;;;5072527;28;20086;-82
2022/12/09 02:47:15;;;;;;;5.65;2.22;;;;;;;;;;5072545;28;20059;-82
2022/12/09 02:49:42;;;;;;;4.45;2.47;;;;;;;;;;5070688;28;20688;-82
2022/12/09 02:52:09;;;;;;;4.03;2.13;;;;;;;;;;5071517;28;20029;-82
2022/12/09 02:54:37;;;;;;;6.40;3.22;;;;;;;;;;5071984;28;20032;-82
2022/12/09 02:57:10;;;;;;;5.47;3.38;;;;;;;;;;5068064;28;20106;-83
2022/12/09 02:59:36;;;;;;;3.72;2.63;;;;;;;;;;5071539;28;20075;-82
2022/12/09 03:02:04;;;;;;;5.07;2.28;;;;;;;;;;5070571;28;20427;-83
2022/12/09 03:04:30;;;;;;;6.72;2.25;;;;;;;;;;5072671;28;20107;-83
2022/12/09 03:07:22;;;;;;;1.40;1.23;;;;;;;;;;5071424;28;20033;-83
2022/12/09 03:09:57;;;;;;;3.20;1.92;;;;;;;;;;5050878;28;20040;-84
2022/12/09 03:12:29;;;;;;;2.80;1.67;;;;;;;;;;5072186;28;20059;-83
2022/12/09 03:14:56;;;;;;;3.05;1.65;;;;;;;;;;5071926;28;20039;-82
2022/12/09 03:17:30;;;;;;;10.43;2.13;;;;;;;;;;5071725;28;20063;-82
2022/12/09 03:19:59;;;;;;;1.48;1.25;;;;;;;;;;5069555;28;20412;-83
2022/12/09 03:22:28;;;;;;;2.35;1.58;;;;;;;;;;5068553;28;20020;-82
2022/12/09 03:25:09;;;;;;;1.75;1.50;;;;;;;;;;5072995;28;20028;-83
2022/12/09 03:27:42;;;;;;;8.45;2.85;;;;;;;;;;5071755;28;20442;-82
2022/12/09 03:30:09;;;;;;;2.47;1.42;;;;;;;;;;5072906;28;20047;-82
2022/12/09 03:32:37;;;;;;;5.07;1.83;;;;;;;;;;5073232;28;20095;-82
2022/12/09 03:35:08;;;;;;;3.22;1.20;;;;;;;;;;5071998;28;20135;-82
2022/12/09 03:37:36;;;;;;;4.55;1.88;;;;;;;;;;5071525;28;20060;-84
2022/12/09 03:40:05;;;;;;;7.63;1.98;;;;;;;;;;5071914;28;20082;-82
2022/12/09 03:42:40;;;;;;;3.22;2.05;;;;;;;;;;5069519;28;20116;-83
2022/12/09 03:45:10;;;;;;;3.85;2.13;;;;;;;;;;5071476;28;20028;-83
2022/12/09 03:47:36;;;;;;;2.08;1.48;;;;;;;;;;5072819;28;20078;-82
2022/12/09 03:50:03;;;;;;;1.70;1.00;;;;;;;;;;5074128;28;20032;-83
2022/12/09 03:52:52;;;;;;;3.10;1.50;;;;;;;;;;5072642;28;20386;-83
2022/12/09 03:55:27;;;;;;;3.55;1.83;;;;;;;;;;5074126;28;20467;-83
2022/12/09 03:57:56;;;;;;;2.22;1.80;;;;;;;;;;5075101;28;20051;-83
2022/12/09 04:00:21;;;;;;;3.22;2.00;;;;;;;;;;5075686;28;20032;-83
2022/12/09 04:02:47;;;;;;;3.95;1.48;;;;;;;;;;5074880;28;20032;-83
2022/12/09 04:05:12;;;;;;;2.45;1.60;;;;;;;;;;5074763;28;20024;-82
2022/12/09 04:07:38;;;;;;;3.55;3.03;;;;;;;;;;5072970;28;20029;-82
2022/12/09 04:10:04;;;;;;;2.17;1.20;;;;;;;;;;5071144;28;20094;-83
2022/12/09 04:12:30;;;;;;;5.53;2.90;;;;;;;;;;5069353;28;20492;-82
2022/12/09 04:14:55;;;;;;;3.92;2.50;;;;;;;;;;5072214;28;20070;-82
2022/12/09 04:17:21;;;;;;;3.63;2.10;;;;;;;;;;5071899;28;20067;-82
2022/12/09 04:19:46;;;;;;;2.90;2.67;;;;;;;;;;5072150;28;20024;-82
2022/12/09 04:22:12;;;;;;;7.25;3.00;;;;;;;;;;5071313;28;20378;-82
2022/12/09 04:24:37;;;;;;;5.03;2.83;;;;;;;;;;5071149;28;20033;-83
2022/12/09 04:27:02;;;;;;;13.43;4.30;;;;;;;;;;5070986;28;20109;-83
2022/12/09 04:29:28;;;;;;;5.95;3.45;;;;;;;;;;5071153;28;20032;-83
2022/12/09 04:31:53;;;;;;;12.85;7.45;;;;;;;;;;5071029;28;20126;-83
2022/12/09 04:34:19;;;;;;;6.88;3.67;;;;;;;;;;5071969;28;20016;-83
2022/12/09 04:36:44;;;;;;;4.63;2.08;;;;;;;;;;5072081;28;20056;-84
2022/12/09 04:39:09;;;;;;;3.25;1.85;;;;;;;;;;5071813;28;20028;-83
2022/12/09 04:41:35;;;;;;;4.00;1.52;;;;;;;;;;5072126;28;20040;-83
2022/12/09 04:44:01;;;;;;;4.82;3.15;;;;;;;;;;5071117;28;20370;-84
2022/12/09 04:46:26;;;;;;;4.22;1.60;;;;;;;;;;5073485;28;20358;-83
2022/12/09 04:48:52;;;;;;;2.40;2.08;;;;;;;;;;5072766;28;20465;-82
2022/12/09 04:51:17;;;;;;;2.25;2.00;;;;;;;;;;5073096;28;20036;-83
2022/12/09 04:53:43;;;;;;;4.03;2.78;;;;;;;;;;5072989;28;20050;-83
2022/12/09 04:56:14;;;;;;;10.90;2.60;;;;;;;;;;5072589;28;20400;-83
2022/12/09 04:58:42;;;;;;;2.80;2.10;;;;;;;;;;5071890;28;20028;-83
2022/12/09 05:01:09;;;;;;;5.97;2.92;;;;;;;;;;5071866;28;20048;-83
2022/12/09 05:03:35;;;;;;;3.55;2.10;;;;;;;;;;5071768;28;20025;-82
2022/12/09 05:06:11;;;;;;;2.60;1.60;;;;;;;;;;5072243;28;20029;-83
2022/12/09 05:08:37;;;;;;;5.38;2.08;;;;;;;;;;5073284;28;20379;-83
2022/12/09 05:11:02;;;;;;;2.70;1.90;;;;;;;;;;5071650;28;20103;-83
2022/12/09 05:13:29;;;;;;;3.17;1.13;;;;;;;;;;5071227;28;20024;-81
2022/12/09 05:16:03;;;;;;;20.02;2.30;;;;;;;;;;5073197;28;20101;-81
2022/12/09 05:18:29;;;;;;;3.63;2.35;;;;;;;;;;5071847;28;20025;-80
2022/12/09 05:20:55;;;;;;;2.35;1.65;;;;;;;;;;5071363;28;20603;-80
2022/12/09 05:23:20;;;;;;;6.03;2.03;;;;;;;;;;5073040;28;20036;-81
2022/12/09 05:25:47;;;;;;;10.45;2.85;;;;;;;;;;5068494;28;20036;-81
2022/12/09 05:28:12;;;;;;;3.63;2.45;;;;;;;;;;5072517;28;20099;-81
2022/12/09 05:30:38;;;;;;;2.63;2.13;;;;;;;;;;5072547;28;20067;-81
2022/12/09 05:33:04;;;;;;;1.55;1.45;;;;;;;;;;5071622;28;20031;-81
2022/12/09 05:35:29;;;;;;;2.40;1.50;;;;;;;;;;5070938;28;20139;-81
2022/12/09 05:37:55;;;;;;;3.80;1.65;;;;;;;;;;5070840;28;20033;-81
2022/12/09 05:40:23;;;;;;;4.32;1.88;;;;;;;;;;5070808;28;20036;-82
2022/12/09 05:42:49;;;;;;;3.65;2.30;;;;;;;;;;5069177;28;20365;-81
2022/12/09 05:45:14;;;;;;;2.20;1.67;;;;;;;;;;5070831;28;20034;-81
2022/12/09 05:47:40;;;;;;;6.07;2.40;;;;;;;;;;5067770;28;20400;-81
2022/12/09 05:50:06;;;;;;;5.53;1.95;;;;;;;;;;5070415;28;20043;-82
2022/12/09 05:52:34;;;;;;;6.68;2.97;;;;;;;;;;5070259;28;20116;-82
2022/12/09 05:55:01;;;;;;;6.72;2.58;;;;;;;;;;5071236;28;20033;-82
2022/12/09 05:57:26;;;;;;;3.78;2.42;;;;;;;;;;5069991;28;20106;-81
2022/12/09 05:59:52;;;;;;;3.15;1.83;;;;;;;;;;5070917;28;20052;-81
2022/12/09 06:02:17;;;;;;;7.55;2.38;;;;;;;;;;5069414;28;20039;-81
2022/12/09 06:04:43;;;;;;;5.53;2.00;;;;;;;;;;5069624;28;20028;-82
2022/12/09 06:07:08;;;;;;;3.65;2.40;;;;;;;;;;5070460;28;20119;-81
2022/12/09 06:09:33;;;;;;;3.47;2.60;;;;;;;;;;5068543;28;20039;-81
2022/12/09 06:11:59;;;;;;;5.05;2.33;;;;;;;;;;5070780;28;20031;-82
2022/12/09 06:14:24;;;;;;;5.50;1.75;;;;;;;;;;5066966;28;20107;-82
2022/12/09 06:16:49;;;;;;;7.38;3.65;;;;;;;;;;5070869;28;20074;-81
2022/12/09 06:19:15;;;;;;;3.95;2.85;;;;;;;;;;5072093;28;20040;-82
2022/12/09 06:21:40;;;;;;;7.25;3.67;;;;;;;;;;5067541;28;20492;-82
2022/12/09 06:24:07;;;;;;;6.80;2.92;;;;;;;;;;5066479;28;20086;-81
2022/12/09 06:26:32;;;;;;;6.70;3.53;;;;;;;;;;5070429;28;20088;-81
2022/12/09 06:28:58;;;;;;;4.07;2.30;;;;;;;;;;5099850;28;20103;-82
2022/12/09 06:31:25;;;;;;;6.93;2.13;;;;;;;;;;5069558;28;20032;-82
2022/12/09 06:33:51;;;;;;;13.43;3.22;;;;;;;;;;5071902;28;20024;-81
2022/12/09 06:36:17;;;;;;;4.90;2.45;;;;;;;;;;5068701;28;20483;-81
2022/12/09 06:38:42;;;;;;;5.88;2.55;;;;;;;;;;5070328;28;20077;-81
2022/12/09 06:41:10;;;;;;;14.82;3.35;;;;;;;;;;5072113;28;20709;-81
2022/12/09 06:43:37;;;;;;;2.45;1.63;;;;;;;;;;5069448;28;20035;-83
2022/12/09 06:46:09;;;;;;;7.72;2.88;;;;;;;;;;5068921;28;20025;-81
2022/12/09 06:48:34;;;;;;;2.72;1.80;;;;;;;;;;5067066;28;20175;-82
2022/12/09 06:51:00;;;;;;;8.65;3.50;;;;;;;;;;5068873;28;20115;-81
2022/12/09 06:53:25;;;;;;;5.55;2.97;;;;;;;;;;5068990;28;20024;-82
2022/12/09 06:55:51;;;;;;;5.28;2.88;;;;;;;;;;5070127;28;20049;-82
2022/12/09 06:58:16;;;;;;;4.28;2.67;;;;;;;;;;5072491;28;20039;-84
2022/12/09 07:00:41;;;;;;;2.55;2.15;;;;;;;;;;5073081;28;20033;-82
2022/12/09 07:03:10;;;;;;;4.68;2.28;;;;;;;;;;5073413;28;20027;-82
2022/12/09 07:05:35;;;;;;;4.45;2.50;;;;;;;;;;5071713;28;20051;-81
2022/12/09 07:08:00;;;;;;;3.75;2.10;;;;;;;;;;5074189;28;20493;-80
2022/12/09 07:10:26;;;;;;;15.35;3.50;;;;;;;;;;5074257;28;20024;-81
2022/12/09 07:12:54;;;;;;;17.92;6.88;;;;;;;;;;5073903;28;20468;-81
2022/12/09 07:15:19;;;;;;;5.00;2.28;;;;;;;;;;5072659;28;20036;-82
2022/12/09 07:17:45;;;;;;;6.57;2.80;;;;;;;;;;5071075;28;20033;-81
2022/12/09 07:20:11;;;;;;;3.47;2.25;;;;;;;;;;5073468;28;20082;-81
2022/12/09 07:22:37;;;;;;;6.72;3.10;;;;;;;;;;5072738;28;20040;-82
2022/12/09 07:25:03;;;;;;;3.17;2.45;;;;;;;;;;5073945;28;20028;-82
2022/12/09 07:27:29;;;;;;;2.85;2.38;;;;;;;;;;5073823;28;20040;-82
2022/12/09 07:29:54;;;;;;;2.50;1.67;;;;;;;;;;5073492;28;20020;-82
2022/12/09 07:32:19;;;;;;;12.30;2.72;;;;;;;;;;5073145;28;20044;-82
2022/12/09 07:34:45;;;;;;;8.35;1.95;;;;;;;;;;5073800;28;20032;-83
2022/12/09 07:37:10;;;;;;;4.10;2.50;;;;;;;;;;5074189;28;20104;-81
2022/12/09 07:39:36;;;;;;;5.15;2.28;;;;;;;;;;5073599;28;20112;-82
2022/12/09 07:42:11;;;;;;;10.55;1.92;;;;;;;;;;5073569;28;20380;-82
2022/12/09 07:44:38;;;;;;;3.47;2.10;;;;;;;;;;5073653;28;20047;-82
2022/12/09 07:47:11;;;;;;;5.40;2.85;;;;;;;;;;5072186;28;20021;-82
2022/12/09 07:49:44;;;;;;;7.10;3.63;;;;;;;;;;5072691;28;20384;-81
2022/12/09 07:52:11;;;;;;;3.75;2.03;;;;;;;;;;5072285;28;20029;-80
2022/12/09 07:54:36;;;;;;;6.80;1.88;;;;;;;;;;5073714;28;20028;-80
2022/12/09 07:57:01;;;;;;;9.05;3.65;;;;;;;;;;5072842;28;20488;-80
2022/12/09 07:59:27;;;;;;;12.43;3.47;;;;;;;;;;5071747;28;20036;-81
2022/12/09 08:01:52;;;;;;;13.82;5.35;;;;;;;;;;5071932;28;20027;-82
2022/12/09 08:04:18;;;;;;;8.32;3.28;;;;;;;;;;5072999;28;20126;-81
2022/12/09 08:06:43;;;;;;;8.38;4.40;;;;;;;;;;5072500;28;20376;-81
2022/12/09 08:09:11;;;;;;;3.35;2.25;;;;;;;;;;5068969;28;20086;-79
2022/12/09 08:11:36;;;;;;;7.03;3.08;;;;;;;;;;5068867;28;20035;-79
2022/12/09 08:14:04;;;;;;;25.30;5.25;;;;;;;;;;5072583;28;20111;-79
2022/12/09 08:16:30;;;;;;;7.88;4.03;;;;;;;;;;5070122;28;20032;-81
2022/12/09 08:18:56;;;;;;;7.97;3.97;;;;;;;;;;5070928;28;20055;-82
2022/12/09 08:21:31;;;;;;;6.43;3.13;;;;;;;;;;5070731;28;20032;-80
2022/12/09 08:23:59;;;;;;;5.10;3.33;;;;;;;;;;5071822;28;20034;-80
2022/12/09 08:26:27;;;;;;;6.60;3.25;;;;;;;;;;5072261;28;20043;-81
2022/12/09 08:28:53;;;;;;;5.75;2.45;;;;;;;;;;5072593;28;20488;-80
2022/12/09 08:31:21;;;;;;;11.35;5.68;;;;;;;;;;5072361;28;20037;-81
2022/12/09 08:33:47;;;;;;;32.00;7.43;;;;;;;;;;5067607;28;20115;-81
2022/12/09 08:36:24;;;;;;;6.95;5.20;;;;;;;;;;5071067;28;20024;-80
2022/12/09 08:38:51;;;;;;;7.53;5.63;;;;;;;;;;5071426;28;20044;-80
2022/12/09 08:41:33;;;;;;;13.43;6.97;;;;;;;;;;5068503;28;20052;-82
2022/12/09 08:44:16;;;;;;;12.93;5.30;;;;;;;;;;5071727;28;20448;-81
2022/12/09 08:46:47;;;;;;;28.67;6.65;;;;;;;;;;5071028;28;20028;-79
2022/12/09 08:49:18;;;;;;;10.23;5.40;;;;;;;;;;5070306;28;20020;-80
2022/12/09 08:51:45;;;;;;;9.45;5.57;;;;;;;;;;5071803;28;20401;-79
2022/12/09 08:54:10;;;;;;;9.55;5.97;;;;;;;;;;5068548;28;20029;-80
2022/12/09 08:56:38;;;;;;;13.05;6.25;;;;;;;;;;5067136;28;20538;-81
2022/12/09 08:59:04;;;;;;;9.75;5.10;;;;;;;;;;5070149;28;20029;-82
2022/12/09 09:01:36;;;;;;;9.35;4.82;;;;;;;;;;5073688;28;20085;-80
2022/12/09 09:04:08;;;;;;;9.18;5.43;;;;;;;;;;5069738;28;20152;-81
2022/12/09 09:06:37;;;;;;;6.10;4.28;;;;;;;;;;5066425;28;20028;-82
2022/12/09 09:09:04;;;;;;;9.73;5.03;;;;;;;;;;5070347;28;20096;-80
2022/12/09 09:11:30;;;;;;;9.93;5.70;;;;;;;;;;5071310;28;20085;-81
2022/12/09 09:13:55;;;;;;;8.43;5.93;;;;;;;;;;5071258;28;20029;-81
2022/12/09 09:16:23;;;;;;;12.65;4.88;;;;;;;;;;5069932;28;20040;-80
2022/12/09 09:18:49;;;;;;;8.32;4.20;;;;;;;;;;5071160;28;20051;-79
2022/12/09 09:21:19;;;;;;;10.73;4.82;;;;;;;;;;5070239;28;20052;-81
2022/12/09 09:23:44;;;;;;;6.53;4.15;;;;;;;;;;5068710;28;20099;-80
2022/12/09 09:26:22;;;;;;;7.95;5.18;;;;;;;;;;5072059;28;20028;-81
2022/12/09 09:28:48;;;;;;;12.65;4.65;;;;;;;;;;5071062;28;20495;-80
2022/12/09 09:31:17;;;;;;;13.10;4.80;;;;;;;;;;5068258;28;20042;-82
2022/12/09 09:33:43;;;;;;;5.40;3.75;;;;;;;;;;5068242;28;20028;-82
2022/12/09 09:36:13;;;;;;;6.75;3.72;;;;;;;;;;5069722;28;20103;-81
2022/12/09 09:38:39;;;;;;;4.57;3.42;;;;;;;;;;5068888;28;20411;-82
2022/12/09 09:41:23;;;;;;;6.45;3.83;;;;;;;;;;5072505;28;20032;-80
2022/12/09 09:43:49;;;;;;;12.85;4.20;;;;;;;;;;5068706;28;20029;-81
2022/12/09 09:46:26;;;;;;;10.65;5.22;;;;;;;;;;5069531;28;20600;-81
2022/12/09 09:48:53;;;;;;;13.35;4.97;;;;;;;;;;5064329;28;20415;-81
2022/12/09 09:51:20;;;;;;;11.15;4.63;;;;;;;;;;5069695;28;20473;-82
2022/12/09 09:53:49;;;;;;;5.22;3.42;;;;;;;;;;5067067;28;20185;-80
2022/12/09 09:56:33;;;;;;;13.30;4.80;;;;;;;;;;5068713;28;20056;-80
2022/12/09 09:59:28;;;;;;;13.70;4.88;;;;;;;;;;5067978;28;20028;-80
2022/12/09 10:02:09;;;;;;;6.55;3.83;;;;;;;;;;5070143;28;20504;-81
2022/12/09 10:04:35;;;;;;;5.70;3.17;;;;;;;;;;5066545;28;20020;-81
2022/12/09 10:07:09;;;;;;;7.13;2.78;;;;;;;;;;5068758;28;20032;-81
2022/12/09 10:09:47;;;;;;;9.43;3.53;;;;;;;;;;5069449;28;20112;-81
2022/12/09 10:12:26;;;;;;;8.73;3.28;;;;;;;;;;5067290;28;20029;-80
2022/12/09 10:15:01;;;;;;;5.25;3.47;;;;;;;;;;5069541;28;20361;-80
2022/12/09 10:17:34;;;;;;;3.67;2.30;;;;;;;;;;5069577;28;20044;-81
2022/12/09 10:20:10;;;;;;;5.05;3.17;;;;;;;;;;5071349;28;20383;-80
2022/12/09 10:22:45;;;;;;;4.18;2.55;;;;;;;;;;5068981;28;20043;-79
2022/12/09 10:25:19;;;;;;;4.78;2.78;;;;;;;;;;5068543;28;20028;-81
2022/12/09 10:27:51;;;;;;;9.20;3.20;;;;;;;;;;5067737;28;20452;-79
2022/12/09 10:30:18;;;;;;;7.60;3.30;;;;;;;;;;5066147;28;20610;-80
2022/12/09 10:32:44;;;;;;;9.65;3.08;;;;;;;;;;5070791;28;20412;-80
2022/12/09 10:35:14;;;;;;;7.35;3.88;;;;;;;;;;5072979;28;20028;-80
2022/12/09 10:37:40;;;;;;;;;;;;;;;;;;5073186;28;20558;-82
2022/12/09 10:40:11;;;;;;;4.72;2.70;;;;;;;;;;5072346;28;19916;-82
2022/12/09 10:45:29;;;;;;;6.45;3.35;;;;;;;;;;5070837;28;20085;-84
2022/12/09 10:47:55;;;;;;;8.98;2.65;;;;;;;;;;5068576;28;20509;-79
2022/12/09 10:50:33;;;;;;;8.20;3.90;;;;;;;;;;5074069;28;20103;-81
2022/12/09 10:53:14;;;;;;;12.43;3.95;;;;;;;;;;5071766;28;20036;-81
2022/12/09 10:55:43;;;;;;;5.70;4.03;;;;;;;;;;5070645;28;20515;-81
2022/12/09 10:58:23;;;;;;;6.60;3.97;;;;;;;;;;5073609;28;20126;-81
2022/12/09 11:01:03;;;;;;;8.30;3.63;;;;;;;;;;5070877;28;20062;-80
2022/12/09 11:03:52;;;;;;;7.97;3.97;;;;;;;;;;5074163;28;20157;-81
2022/12/09 11:06:23;;;;;;;8.00;4.67;;;;;;;;;;5073756;28;20032;-80
2022/12/09 11:08:53;;;;;;;8.95;4.30;;;;;;;;;;5073878;28;20025;-80
2022/12/09 11:11:19;;;;;;;7.63;4.63;;;;;;;;;;5073002;28;20033;-80
2022/12/09 11:13:44;;;;;;;6.72;3.45;;;;;;;;;;5072722;28;20024;-81
2022/12/09 11:16:10;;;;;;;8.55;5.18;;;;;;;;;;5073657;28;20036;-80
2022/12/09 11:18:45;;;;;;;8.88;4.93;;;;;;;;;;5073430;28;20031;-81
2022/12/09 11:21:30;;;;;;;9.23;5.78;;;;;;;;;;5072740;28;20381;-82
2022/12/09 11:23:56;;;;;;;13.35;6.35;;;;;;;;;;5071645;28;20383;-83
2022/12/09 11:26:25;;;;;;;16.77;6.57;;;;;;;;;;5070934;28;20103;-83
2022/12/09 11:29:12;;;;;;;6.10;4.40;;;;;;;;;;5070237;28;20016;-80
2022/12/09 11:31:39;;;;;;;9.00;4.90;;;;;;;;;;5072036;28;20024;-81
2022/12/09 11:34:15;;;;;;;8.18;5.55;;;;;;;;;;5072085;28;20024;-81
2022/12/09 11:36:46;;;;;;;10.55;5.68;;;;;;;;;;5073275;28;20515;-80
2022/12/09 11:39:33;;;;;;;9.30;4.30;;;;;;;;;;5071291;28;20384;-81
2022/12/09 11:42:13;;;;;;;6.97;4.18;;;;;;;;;;5072716;28;20100;-81
2022/12/09 11:44:47;;;;;;;11.88;5.10;;;;;;;;;;5071888;28;20024;-83
2022/12/09 11:47:20;;;;;;;7.22;5.35;;;;;;;;;;5070405;28;20111;-80
2022/12/09 11:49:50;;;;;;;14.98;5.78;;;;;;;;;;5072164;28;20025;-80
2022/12/09 11:52:16;;;;;;;;;;;;;;;;;;5070450;28;20387;-80
2022/12/09 11:54:45;;;;;;;10.35;5.30;;;;;;;;;;5070435;28;19913;-80
2022/12/09 11:57:28;;;;;;;9.33;5.10;;;;;;;;;;5072232;28;20048;-83
2022/12/09 11:59:58;;;;;;;10.80;4.97;;;;;;;;;;5071342;28;20021;-80
2022/12/09 12:02:23;;;;;;;12.20;5.22;;;;;;;;;;5071594;28;20356;-81
2022/12/09 12:05:08;;;;;;;7.93;5.53;;;;;;;;;;5071944;28;20081;-80
2022/12/09 12:07:47;;;;;;;8.82;5.43;;;;;;;;;;5074556;28;20481;-80
2022/12/09 12:10:23;;;;;;;12.45;5.70;;;;;;;;;;5072159;28;20074;-81
2022/12/09 12:13:13;;;;;;;8.80;4.60;;;;;;;;;;5072930;28;20032;-80
2022/12/09 12:16:03;;;;;;;5.72;4.32;;;;;;;;;;5069547;28;20109;-80
2022/12/09 12:18:34;;;;;;;17.20;7.72;;;;;;;;;;5070860;28;20024;-80
2022/12/09 12:21:20;;;;;;;13.20;6.30;;;;;;;;;;5073005;28;20029;-80
2022/12/09 12:24:05;;;;;;;12.77;5.93;;;;;;;;;;5071260;28;20381;-82
2022/12/09 12:26:45;;;;;;;15.13;5.55;;;;;;;;;;5071579;28;20029;-80
2022/12/09 12:29:24;;;;;;;5.90;4.68;;;;;;;;;;5071499;28;20029;-81
2022/12/09 12:32:11;;;;;;;8.65;4.82;;;;;;;;;;5068256;28;20029;-81
2022/12/09 12:34:53;;;;;;;6.97;5.00;;;;;;;;;;5071699;28;20031;-81
2022/12/09 12:37:24;;;;;;;8.23;4.18;;;;;;;;;;5071587;28;20040;-82
2022/12/09 12:39:58;;;;;;;12.23;5.70;;;;;;;;;;5070243;28;20070;-80
2022/12/09 12:42:29;;;;;;;13.05;5.00;;;;;;;;;;5067982;28;20020;-79
2022/12/09 12:48:19;;;;;;;9.55;5.13;;;;;;;;;;5071831;28;20380;-81
2022/12/09 12:51:24;;;;;;;7.63;4.47;;;;;;;;;;5071968;28;20089;-81
2022/12/09 12:54:03;;;;;;;12.35;5.25;;;;;;;;;;5072034;28;20024;-82
2022/12/09 12:57:11;;;;;;;12.23;5.68;;;;;;;;;;5071213;28;20048;-82
2022/12/09 12:59:56;;;;;;;16.35;5.57;;;;;;;;;;5028498;28;20036;-84
2022/12/09 13:02:38;;;;;;;9.75;5.68;;;;;;;;;;5084951;28;20060;-81
2022/12/09 13:05:14;;;;;;;9.80;5.07;;;;;;;;;;5071236;28;20032;-82
2022/12/09 13:07:58;;;;;;;13.82;5.22;;;;;;;;;;5071027;28;20028;-82
2022/12/09 13:10:44;;;;;;;8.77;5.28;;;;;;;;;;5068946;28;20047;-82
2022/12/09 13:13:32;;;;;;;11.48;5.78;;;;;;;;;;5071559;28;20029;-82
2022/12/09 13:16:22;;;;;;;7.95;5.55;;;;;;;;;;5069290;28;20024;-83
2022/12/09 13:18:48;;;;;;;;;;;;;;;;;;5069799;28;20045;-81
2022/12/09 13:21:14;;;;;;;10.70;4.80;;;;;;;;;;5071293;28;20403;-83
2022/12/09 13:24:06;;;;;;;19.27;5.72;;;;;;;;;;5070233;28;20122;-81
2022/12/09 13:26:54;;;;;;;13.35;5.60;;;;;;;;;;5069364;28;20077;-80
2022/12/09 13:29:41;;;;;;;9.02;4.18;;;;;;;;;;5068569;28;20358;-81
2022/12/09 13:32:36;;;;;;;16.27;4.90;;;;;;;;;;5070307;28;20032;-80
2022/12/09 13:35:35;;;;;;;10.70;6.28;;;;;;;;;;5061858;28;20090;-81
2022/12/09 13:38:00;;;;;;;7.40;5.07;;;;;;;;;;5069165;28;20043;-81
2022/12/09 13:40:35;;;;;;;22.13;5.65;;;;;;;;;;5071491;28;20489;-82
2022/12/09 13:43:00;;;;;;;11.93;4.80;;;;;;;;;;5070496;28;20020;-82
2022/12/09 13:45:34;;;;;;;14.70;5.10;;;;;;;;;;5071548;28;20035;-83
2022/12/09 13:48:04;;;;;;;7.90;4.70;;;;;;;;;;5071301;28;20464;-82
2022/12/09 13:50:56;;;;;;;11.55;6.07;;;;;;;;;;5071521;28;20154;-82
2022/12/09 13:53:40;;;;;;;14.30;5.55;;;;;;;;;;5067897;28;20048;-82
2022/12/09 13:56:18;;;;;;;14.50;5.68;;;;;;;;;;5067514;28;20484;-82
2022/12/09 13:59:21;;;;;;;17.70;5.18;;;;;;;;;;5071169;28;20419;-81
2022/12/09 14:01:52;;;;;;;8.70;4.30;;;;;;;;;;5069377;28;20472;-80
2022/12/09 14:04:25;;;;;;;7.78;5.22;;;;;;;;;;5070169;28;20490;-82
2022/12/09 14:07:15;;;;;;;9.15;5.25;;;;;;;;;;5070405;28;20032;-81
2022/12/09 14:09:46;;;;;;;10.85;6.32;;;;;;;;;;5070706;28;20100;-82
2022/12/09 14:12:31;;;;;;;13.32;6.63;;;;;;;;;;5070537;28;20060;-81
2022/12/09 14:15:24;;;;;;;10.05;5.70;;;;;;;;;;5069707;28;20399;-82
2022/12/09 14:17:50;;;;;;;17.25;6.60;;;;;;;;;;5068961;28;20372;-81
2022/12/09 14:20:27;;;;;;;10.48;5.55;;;;;;;;;;5070525;28;20048;-81
2022/12/09 14:23:08;;;;;;;10.60;5.57;;;;;;;;;;5068591;28;20031;-83
2022/12/09 14:25:33;;;;;;;13.57;5.68;;;;;;;;;;5070422;28;20028;-82
2022/12/09 14:28:08;;;;;;;11.18;5.30;;;;;;;;;;5070822;28;20361;-83
2022/12/09 14:30:33;;;;;;;15.13;5.68;;;;;;;;;;5069196;28;20036;-83
2022/12/09 14:33:00;;;;;;;8.30;5.88;;;;;;;;;;5068603;28;20094;-80
2022/12/09 14:35:42;;;;;;;7.55;5.38;;;;;;;;;;5070674;28;20056;-81
2022/12/09 14:38:19;;;;;;;10.77;6.22;;;;;;;;;;5069623;28;20059;-79
2022/12/09 14:41:04;;;;;;;9.88;5.30;;;;;;;;;;5069384;28;20071;-79
2022/12/09 14:43:51;;;;;;;7.93;5.20;;;;;;;;;;5068416;28;20086;-80
2022/12/09 14:46:21;;;;;;;9.48;4.82;;;;;;;;;;5070718;28;20037;-83
2022/12/09 14:48:53;;;;;;;6.95;3.90;;;;;;;;;;5070395;28;20020;-81
2022/12/09 14:51:26;;;;;;;4.30;2.95;;;;;;;;;;5068472;28;20048;-83
2022/12/09 14:53:58;;;;;;;12.40;5.65;;;;;;;;;;5070603;28;20384;-83
2022/12/09 14:56:26;;;;;;;22.40;7.00;;;;;;;;;;5070229;28;20037;-83
2022/12/09 14:59:07;;;;;;;6.28;4.65;;;;;;;;;;5070527;28;20487;-83
2022/12/09 15:01:52;;;;;;;4.47;3.60;;;;;;;;;;5066149;28;20020;-80
2022/12/09 15:04:27;;;;;;;4.85;3.03;;;;;;;;;;5069293;28;20033;-82
2022/12/09 15:07:12;;;;;;;16.42;6.75;;;;;;;;;;5069601;28;20024;-82
2022/12/09 15:10:15;;;;;;;16.08;6.55;;;;;;;;;;5070147;28;20035;-81